EAL1801 KBOS-KDFW
Flight info
| Callsign | EAL1801 |
|---|---|
| Flight time | 3h 39m |
| Altitude | 34000 |
| Route | BLZZR6 BLZZR BAF Q406 BWZ J6 LRP/N0467F320 J6 MRB/N0462F340 J6 EYTEE/N0459F360 J6 HVQ Q68 LITTR FEWWW SEEVR4 |
| Aircraft | B752/M-L/4004 |
Departure
| Time | 2026-05-04 05:59 |
|---|---|
| Airport | Boston Logan International Airport (KBOS) |
Arrival
| Time | 2026-05-04 09:39 |
|---|---|
| Airport | Dallas Fort Worth International Airport (KDFW) |
| Time | Latitude | Longitude | Altitude | Speed | Heading |
|---|---|---|---|---|---|
| 2026-05-04 05:58 | 42.37386 | -71.01734 | 29 ft | 0 kts | 135° |
| 2026-05-04 05:59 | 42.37290 | -71.01606 | 29 ft | 62 kts | 135° |
| 2026-05-04 05:59 | 42.36727 | -71.00851 | 60 ft | 157 kts | 135° |
| 2026-05-04 05:59 | 42.35886 | -70.99730 | 1011 ft | 178 kts | 141° |
| 2026-05-04 05:59 | 42.34817 | -70.98835 | 2119 ft | 181 kts | 160° |
| 2026-05-04 06:00 | 42.33823 | -70.97681 | 2833 ft | 203 kts | 130° |
| 2026-05-04 06:00 | 42.33328 | -70.95804 | 3457 ft | 217 kts | 103° |
| 2026-05-04 06:00 | 42.33092 | -70.93730 | 4109 ft | 230 kts | 97° |
| 2026-05-04 06:00 | 42.32838 | -70.91553 | 4694 ft | 246 kts | 99° |
| 2026-05-04 06:01 | 42.32576 | -70.89201 | 5288 ft | 260 kts | 92° |
| 2026-05-04 06:01 | 42.32598 | -70.86685 | 5879 ft | 274 kts | 83° |
| 2026-05-04 06:03 | 42.26621 | -70.70957 | 10512 ft | 304 kts | 186° |
| 2026-05-04 06:03 | 42.24503 | -70.71249 | 10902 ft | 310 kts | 199° |
| 2026-05-04 06:05 | 42.16736 | -70.86564 | 14747 ft | 312 kts | 265° |
| 2026-05-04 06:05 | 42.16212 | -70.92366 | 16017 ft | 315 kts | 269° |
| 2026-05-04 06:05 | 42.16142 | -70.95322 | 16623 ft | 316 kts | 272° |
| 2026-05-04 06:06 | 42.16210 | -70.98289 | 17197 ft | 317 kts | 275° |
| 2026-05-04 06:06 | 42.16375 | -71.01259 | 17761 ft | 319 kts | 277° |
| 2026-05-04 06:06 | 42.16593 | -71.04245 | 18293 ft | 322 kts | 277° |
| 2026-05-04 06:06 | 42.16835 | -71.07259 | 18843 ft | 324 kts | 278° |
| 2026-05-04 06:07 | 42.17077 | -71.10290 | 19377 ft | 327 kts | 277° |
| 2026-05-04 06:07 | 42.17308 | -71.13354 | 19895 ft | 329 kts | 277° |
| 2026-05-04 06:07 | 42.17537 | -71.16436 | 20392 ft | 331 kts | 277° |
| 2026-05-04 06:07 | 42.17767 | -71.19545 | 20875 ft | 334 kts | 277° |
| 2026-05-04 06:08 | 42.17996 | -71.22630 | 21332 ft | 336 kts | 277° |
| 2026-05-04 06:08 | 42.18231 | -71.25779 | 21783 ft | 338 kts | 277° |
| 2026-05-04 06:08 | 42.18455 | -71.28949 | 22212 ft | 341 kts | 276° |
| 2026-05-04 06:08 | 42.18669 | -71.32148 | 22599 ft | 344 kts | 276° |
| 2026-05-04 06:09 | 42.18883 | -71.35386 | 23024 ft | 347 kts | 276° |
| 2026-05-04 06:09 | 42.19100 | -71.38635 | 23481 ft | 349 kts | 276° |
| 2026-05-04 06:11 | 42.20712 | -71.62025 | 26355 ft | 368 kts | 277° |
| 2026-05-04 06:11 | 42.20946 | -71.65475 | 26718 ft | 370 kts | 276° |
| 2026-05-04 06:13 | 42.20980 | -71.90337 | 29117 ft | 391 kts | 270° |
| 2026-05-04 06:14 | 42.19609 | -72.12999 | 30471 ft | 416 kts | 268° |
| 2026-05-04 06:14 | 42.19386 | -72.16836 | 30874 ft | 415 kts | 268° |
| 2026-05-04 06:15 | 42.19165 | -72.20712 | 31279 ft | 413 kts | 268° |
| 2026-05-04 06:15 | 42.18950 | -72.24584 | 31587 ft | 414 kts | 268° |
| 2026-05-04 06:15 | 42.18741 | -72.28465 | 31838 ft | 416 kts | 268° |
| 2026-05-04 06:15 | 42.18519 | -72.32369 | 32134 ft | 417 kts | 267° |
| 2026-05-04 06:16 | 42.18285 | -72.36269 | 32481 ft | 416 kts | 267° |
| 2026-05-04 06:16 | 42.18050 | -72.40152 | 32846 ft | 414 kts | 266° |
| 2026-05-04 06:16 | 42.17818 | -72.44017 | 33175 ft | 414 kts | 266° |
| 2026-05-04 06:16 | 42.17590 | -72.47885 | 33454 ft | 414 kts | 266° |
| 2026-05-04 06:17 | 42.17368 | -72.51764 | 33711 ft | 415 kts | 266° |
| 2026-05-04 06:17 | 42.17137 | -72.55606 | 33866 ft | 406 kts | 266° |
| 2026-05-04 06:17 | 42.16899 | -72.59330 | 33959 ft | 392 kts | 266° |
| 2026-05-04 06:17 | 42.16670 | -72.62965 | 33996 ft | 386 kts | 266° |
| 2026-05-04 06:18 | 42.15936 | -72.70184 | 34002 ft | 399 kts | 257° |
| 2026-05-04 06:20 | 42.02904 | -72.94057 | 34005 ft | 421 kts | 235° |
| 2026-05-04 06:21 | 41.93327 | -73.08974 | 34028 ft | 430 kts | 224° |
| 2026-05-04 06:22 | 41.88305 | -73.13469 | 34031 ft | 436 kts | 216° |
| 2026-05-04 06:25 | 41.55486 | -73.47363 | 34033 ft | 420 kts | 235° |
| 2026-05-04 06:26 | 41.51741 | -73.53340 | 34033 ft | 420 kts | 234° |
| 2026-05-04 06:26 | 41.47885 | -73.59190 | 34033 ft | 420 kts | 233° |
| 2026-05-04 06:27 | 41.38282 | -73.73805 | 34033 ft | 419 kts | 233° |
| 2026-05-04 06:28 | 41.34412 | -73.79640 | 34035 ft | 420 kts | 233° |
| 2026-05-04 06:28 | 41.30550 | -73.85416 | 34034 ft | 420 kts | 233° |
| 2026-05-04 06:29 | 41.26632 | -73.91185 | 34037 ft | 420 kts | 232° |
| 2026-05-04 06:29 | 41.22710 | -73.96953 | 34039 ft | 420 kts | 232° |
| 2026-05-04 06:30 | 41.18785 | -74.02698 | 34042 ft | 419 kts | 232° |
| 2026-05-04 06:30 | 41.14912 | -74.08467 | 34043 ft | 416 kts | 234° |
| 2026-05-04 06:31 | 41.11528 | -74.14586 | 34050 ft | 412 kts | 240° |
| 2026-05-04 06:31 | 41.08549 | -74.21063 | 34059 ft | 411 kts | 243° |
| 2026-05-04 06:33 | 40.96572 | -74.46868 | 34063 ft | 412 kts | 241° |
| 2026-05-04 06:34 | 40.93521 | -74.53287 | 34063 ft | 412 kts | 241° |
| 2026-05-04 06:34 | 40.90470 | -74.59714 | 34063 ft | 412 kts | 241° |
| 2026-05-04 06:36 | 40.78319 | -74.85361 | 34066 ft | 412 kts | 242° |
| 2026-05-04 06:37 | 40.75378 | -74.91847 | 34064 ft | 412 kts | 242° |
| 2026-05-04 06:37 | 40.72464 | -74.98348 | 34066 ft | 412 kts | 243° |
| 2026-05-04 06:38 | 40.69530 | -75.04821 | 34074 ft | 409 kts | 242° |
| 2026-05-04 06:40 | 40.57835 | -75.30412 | 34085 ft | 407 kts | 242° |
| 2026-05-04 06:40 | 40.54904 | -75.36795 | 34087 ft | 408 kts | 242° |
| 2026-05-04 06:41 | 40.51965 | -75.43190 | 34086 ft | 408 kts | 242° |
| 2026-05-04 06:41 | 40.49034 | -75.49573 | 34093 ft | 408 kts | 242° |
| 2026-05-04 06:42 | 40.46123 | -75.55923 | 34097 ft | 408 kts | 242° |
| 2026-05-04 06:44 | 40.34300 | -75.81397 | 34101 ft | 409 kts | 242° |
| 2026-05-04 06:44 | 40.31322 | -75.87768 | 34101 ft | 410 kts | 242° |
| 2026-05-04 06:45 | 40.28341 | -75.94135 | 34101 ft | 410 kts | 242° |
| 2026-05-04 06:45 | 40.25358 | -76.00500 | 34097 ft | 410 kts | 242° |
| 2026-05-04 06:46 | 40.22375 | -76.06862 | 34110 ft | 410 kts | 242° |
| 2026-05-04 06:46 | 40.19405 | -76.13200 | 34114 ft | 406 kts | 242° |
| 2026-05-04 06:48 | 40.07745 | -76.38144 | 34117 ft | 401 kts | 242° |
| 2026-05-04 06:50 | 39.96178 | -76.63130 | 34114 ft | 403 kts | 242° |
| 2026-05-04 06:51 | 39.93280 | -76.69379 | 34110 ft | 403 kts | 242° |
| 2026-05-04 06:51 | 39.90385 | -76.75627 | 34109 ft | 402 kts | 242° |
| 2026-05-04 06:52 | 39.87475 | -76.81856 | 34116 ft | 403 kts | 241° |
| 2026-05-04 06:52 | 39.84529 | -76.88087 | 34118 ft | 405 kts | 241° |
| 2026-05-04 06:53 | 39.81575 | -76.94344 | 34117 ft | 406 kts | 241° |
| 2026-05-04 06:53 | 39.78621 | -77.00609 | 34119 ft | 406 kts | 241° |
| 2026-05-04 06:54 | 39.75686 | -77.06839 | 34121 ft | 407 kts | 242° |
| 2026-05-04 06:54 | 39.72739 | -77.13158 | 34130 ft | 410 kts | 242° |
| 2026-05-04 06:55 | 39.69766 | -77.19444 | 34133 ft | 405 kts | 242° |
| 2026-05-04 06:55 | 39.66825 | -77.25640 | 34136 ft | 401 kts | 242° |
| 2026-05-04 06:57 | 39.55111 | -77.50150 | 34136 ft | 400 kts | 242° |
| 2026-05-04 06:58 | 39.52184 | -77.56286 | 34148 ft | 400 kts | 242° |
| 2026-05-04 06:58 | 39.49268 | -77.62400 | 34139 ft | 400 kts | 242° |
| 2026-05-04 06:59 | 39.46344 | -77.68535 | 34133 ft | 400 kts | 242° |
| 2026-05-04 06:59 | 39.43404 | -77.74645 | 34132 ft | 400 kts | 241° |
| 2026-05-04 07:01 | 39.32498 | -77.99832 | 34128 ft | 403 kts | 246° |
| 2026-05-04 07:02 | 39.29991 | -78.06257 | 34127 ft | 403 kts | 245° |
| 2026-05-04 07:02 | 39.27415 | -78.12696 | 34125 ft | 404 kts | 245° |
| 2026-05-04 07:03 | 39.24827 | -78.19118 | 34125 ft | 404 kts | 245° |
| 2026-05-04 07:03 | 39.22250 | -78.25543 | 34126 ft | 402 kts | 246° |
| 2026-05-04 07:04 | 39.19700 | -78.31930 | 34132 ft | 398 kts | 246° |
| 2026-05-04 07:04 | 39.17594 | -78.37217 | 34129 ft | 398 kts | 246° |
| 2026-05-04 07:05 | 39.15042 | -78.43563 | 34127 ft | 398 kts | 246° |
| 2026-05-04 07:05 | 39.12484 | -78.49886 | 34127 ft | 398 kts | 246° |
| 2026-05-04 07:06 | 39.08641 | -78.59340 | 34140 ft | 398 kts | 246° |
| 2026-05-04 07:07 | 39.06067 | -78.65677 | 34141 ft | 399 kts | 246° |
| 2026-05-04 07:09 | 38.95754 | -78.90929 | 34154 ft | 400 kts | 246° |
| 2026-05-04 07:09 | 38.93164 | -78.97270 | 34158 ft | 402 kts | 246° |
| 2026-05-04 07:10 | 38.90569 | -79.03641 | 34164 ft | 402 kts | 246° |
| 2026-05-04 07:12 | 38.81935 | -79.29728 | 34154 ft | 396 kts | 260° |
| 2026-05-04 07:12 | 38.80864 | -79.36658 | 34135 ft | 399 kts | 260° |
| 2026-05-04 07:13 | 38.79706 | -79.43644 | 34133 ft | 401 kts | 259° |
| 2026-05-04 07:13 | 38.78432 | -79.50618 | 34128 ft | 402 kts | 258° |
| 2026-05-04 07:14 | 38.75219 | -79.68095 | 34126 ft | 403 kts | 258° |
| 2026-05-04 07:15 | 38.73939 | -79.75041 | 34126 ft | 402 kts | 258° |
| 2026-05-04 07:15 | 38.72656 | -79.81957 | 34122 ft | 396 kts | 259° |
| 2026-05-04 07:16 | 38.71388 | -79.88807 | 34124 ft | 395 kts | 258° |
| 2026-05-04 07:16 | 38.70112 | -79.95648 | 34124 ft | 395 kts | 258° |
| 2026-05-04 07:17 | 38.68834 | -80.02477 | 34123 ft | 394 kts | 258° |
| 2026-05-04 07:17 | 38.67558 | -80.09317 | 34125 ft | 394 kts | 258° |
| 2026-05-04 07:18 | 38.66289 | -80.16146 | 34129 ft | 394 kts | 259° |
| 2026-05-04 07:18 | 38.65035 | -80.22924 | 34127 ft | 394 kts | 259° |
| 2026-05-04 07:19 | 38.63769 | -80.29754 | 34128 ft | 395 kts | 259° |
| 2026-05-04 07:19 | 38.62466 | -80.36598 | 34131 ft | 396 kts | 259° |
| 2026-05-04 07:20 | 38.61149 | -80.43466 | 34130 ft | 397 kts | 259° |
| 2026-05-04 07:20 | 38.59843 | -80.50290 | 34130 ft | 398 kts | 259° |
| 2026-05-04 07:22 | 38.54582 | -80.77775 | 34132 ft | 398 kts | 259° |
| 2026-05-04 07:23 | 38.53255 | -80.84586 | 34133 ft | 398 kts | 259° |
| 2026-05-04 07:23 | 38.51919 | -80.91439 | 34126 ft | 398 kts | 259° |
| 2026-05-04 07:24 | 38.50587 | -80.98289 | 34121 ft | 398 kts | 259° |
| 2026-05-04 07:24 | 38.49248 | -81.05188 | 34133 ft | 402 kts | 259° |
| 2026-05-04 07:26 | 38.43794 | -81.32661 | 34127 ft | 398 kts | 259° |
| 2026-05-04 07:27 | 38.42433 | -81.39461 | 34124 ft | 398 kts | 259° |
| 2026-05-04 07:27 | 38.41056 | -81.46307 | 34123 ft | 398 kts | 259° |
| 2026-05-04 07:28 | 38.39680 | -81.53141 | 34123 ft | 398 kts | 259° |
| 2026-05-04 07:28 | 38.38298 | -81.59973 | 34122 ft | 398 kts | 259° |
| 2026-05-04 07:29 | 38.36915 | -81.66808 | 34122 ft | 398 kts | 259° |
| 2026-05-04 07:29 | 38.35545 | -81.73597 | 34122 ft | 398 kts | 259° |
| 2026-05-04 07:30 | 38.33995 | -81.80375 | 34123 ft | 399 kts | 256° |
| 2026-05-04 07:30 | 38.32156 | -81.87079 | 34123 ft | 400 kts | 254° |
| 2026-05-04 07:31 | 38.30231 | -81.93741 | 34123 ft | 400 kts | 254° |
| 2026-05-04 07:33 | 38.22682 | -82.20375 | 34125 ft | 400 kts | 253° |
| 2026-05-04 07:33 | 38.20789 | -82.27032 | 34125 ft | 400 kts | 253° |
| 2026-05-04 07:34 | 38.18890 | -82.33686 | 34122 ft | 400 kts | 253° |
| 2026-05-04 07:34 | 38.16998 | -82.40328 | 34121 ft | 400 kts | 253° |
| 2026-05-04 07:35 | 38.15121 | -82.46933 | 34119 ft | 400 kts | 253° |
| 2026-05-04 07:35 | 38.13238 | -82.53580 | 34114 ft | 399 kts | 253° |
| 2026-05-04 07:36 | 38.11348 | -82.60223 | 34108 ft | 400 kts | 253° |
| 2026-05-04 07:38 | 38.03666 | -82.86683 | 34112 ft | 400 kts | 253° |
| 2026-05-04 07:38 | 38.01844 | -82.92918 | 34063 ft | 401 kts | 253° |
| 2026-05-04 07:39 | 37.99910 | -82.99535 | 34043 ft | 400 kts | 253° |
| 2026-05-04 07:39 | 37.97988 | -83.06195 | 34049 ft | 403 kts | 253° |
| 2026-05-04 07:40 | 37.96051 | -83.12859 | 34050 ft | 401 kts | 253° |
| 2026-05-04 07:40 | 37.94118 | -83.19491 | 34053 ft | 400 kts | 253° |
| 2026-05-04 07:41 | 37.92188 | -83.26055 | 34052 ft | 400 kts | 253° |
| 2026-05-04 07:41 | 37.90235 | -83.32650 | 34052 ft | 400 kts | 253° |
| 2026-05-04 07:42 | 37.88279 | -83.39238 | 34052 ft | 400 kts | 253° |
| 2026-05-04 07:42 | 37.86317 | -83.45830 | 34047 ft | 400 kts | 253° |
| 2026-05-04 07:43 | 37.84350 | -83.52416 | 34043 ft | 399 kts | 253° |
| 2026-05-04 07:43 | 37.82396 | -83.58949 | 34045 ft | 399 kts | 253° |
| 2026-05-04 07:44 | 37.80426 | -83.65515 | 34046 ft | 399 kts | 253° |
| 2026-05-04 07:44 | 37.78451 | -83.72090 | 34044 ft | 399 kts | 253° |
| 2026-05-04 07:45 | 37.76485 | -83.78622 | 34048 ft | 399 kts | 252° |
| 2026-05-04 07:45 | 37.74510 | -83.85192 | 34054 ft | 400 kts | 253° |
| 2026-05-04 07:46 | 37.72540 | -83.91759 | 34053 ft | 400 kts | 253° |
| 2026-05-04 07:46 | 37.70570 | -83.98339 | 34038 ft | 399 kts | 253° |
| 2026-05-04 07:47 | 37.68617 | -84.04862 | 34035 ft | 399 kts | 252° |
| 2026-05-04 07:49 | 37.60579 | -84.31056 | 34048 ft | 400 kts | 252° |
| 2026-05-04 07:49 | 37.58557 | -84.37604 | 34059 ft | 401 kts | 252° |
| 2026-05-04 07:50 | 37.56889 | -84.43057 | 34039 ft | 402 kts | 253° |
| 2026-05-04 07:50 | 37.54859 | -84.49678 | 34035 ft | 407 kts | 253° |
| 2026-05-04 07:51 | 37.52808 | -84.56348 | 34040 ft | 409 kts | 253° |
| 2026-05-04 07:51 | 37.50749 | -84.63050 | 34035 ft | 411 kts | 253° |
| 2026-05-04 07:52 | 37.48662 | -84.69761 | 34031 ft | 411 kts | 253° |
| 2026-05-04 07:52 | 37.46594 | -84.76436 | 34036 ft | 411 kts | 253° |
| 2026-05-04 07:54 | 37.38219 | -85.03351 | 34044 ft | 413 kts | 253° |
| 2026-05-04 07:55 | 37.36107 | -85.10022 | 34044 ft | 414 kts | 253° |
| 2026-05-04 07:55 | 37.33983 | -85.16743 | 34042 ft | 414 kts | 253° |
| 2026-05-04 07:56 | 37.31854 | -85.23458 | 34044 ft | 414 kts | 253° |
| 2026-05-04 07:56 | 37.29717 | -85.30175 | 34043 ft | 414 kts | 253° |
| 2026-05-04 07:57 | 37.27576 | -85.36899 | 34025 ft | 414 kts | 253° |
| 2026-05-04 07:57 | 37.25439 | -85.43595 | 34031 ft | 413 kts | 253° |
| 2026-05-04 07:58 | 37.23306 | -85.50278 | 34047 ft | 413 kts | 254° |
| 2026-05-04 07:58 | 37.21190 | -85.56912 | 34044 ft | 411 kts | 254° |
| 2026-05-04 07:59 | 37.19072 | -85.63564 | 34037 ft | 409 kts | 254° |
| 2026-05-04 07:59 | 37.16962 | -85.70194 | 34039 ft | 409 kts | 254° |
| 2026-05-04 08:00 | 37.14837 | -85.76818 | 34043 ft | 408 kts | 254° |
| 2026-05-04 08:02 | 37.06284 | -86.03096 | 34048 ft | 407 kts | 253° |
| 2026-05-04 08:02 | 37.04137 | -86.09663 | 34044 ft | 407 kts | 253° |
| 2026-05-04 08:03 | 37.01988 | -86.16229 | 34043 ft | 407 kts | 253° |
| 2026-05-04 08:03 | 36.99846 | -86.22783 | 34041 ft | 407 kts | 253° |
| 2026-05-04 08:04 | 36.97723 | -86.29298 | 34028 ft | 407 kts | 254° |
| 2026-05-04 08:04 | 36.95582 | -86.35869 | 34024 ft | 407 kts | 254° |
| 2026-05-04 08:05 | 36.93437 | -86.42416 | 34024 ft | 407 kts | 253° |
| 2026-05-04 08:05 | 36.91197 | -86.48921 | 34024 ft | 407 kts | 252° |
| 2026-05-04 08:06 | 36.88902 | -86.55352 | 34024 ft | 408 kts | 252° |
| 2026-05-04 08:06 | 36.86576 | -86.61809 | 34023 ft | 408 kts | 252° |
| 2026-05-04 08:08 | 36.77215 | -86.87591 | 34021 ft | 406 kts | 252° |
| 2026-05-04 08:11 | 36.66642 | -87.16532 | 34015 ft | 409 kts | 251° |
| 2026-05-04 08:11 | 36.63124 | -87.26176 | 34002 ft | 409 kts | 251° |
| 2026-05-04 08:12 | 36.60752 | -87.32624 | 33984 ft | 410 kts | 251° |
| 2026-05-04 08:12 | 36.58369 | -87.39076 | 33981 ft | 410 kts | 251° |
| 2026-05-04 08:13 | 36.55980 | -87.45526 | 33975 ft | 410 kts | 251° |
| 2026-05-04 08:13 | 36.53583 | -87.51978 | 33978 ft | 410 kts | 251° |
| 2026-05-04 08:14 | 36.51187 | -87.58420 | 33982 ft | 410 kts | 251° |
| 2026-05-04 08:16 | 36.41598 | -87.84120 | 33980 ft | 411 kts | 251° |
| 2026-05-04 08:16 | 36.39197 | -87.90565 | 33977 ft | 411 kts | 251° |
| 2026-05-04 08:17 | 36.36797 | -87.97025 | 33974 ft | 412 kts | 251° |
| 2026-05-04 08:17 | 36.34393 | -88.03429 | 33975 ft | 412 kts | 251° |
| 2026-05-04 08:19 | 36.24648 | -88.29113 | 33974 ft | 412 kts | 251° |
| 2026-05-04 08:20 | 36.22210 | -88.35561 | 33979 ft | 414 kts | 250° |
| 2026-05-04 08:20 | 36.19771 | -88.42042 | 33986 ft | 416 kts | 250° |
| 2026-05-04 08:21 | 36.17274 | -88.48530 | 33995 ft | 417 kts | 250° |
| 2026-05-04 08:21 | 36.14786 | -88.55019 | 34000 ft | 418 kts | 250° |
| 2026-05-04 08:22 | 36.12301 | -88.61483 | 34001 ft | 418 kts | 250° |
| 2026-05-04 08:24 | 36.02297 | -88.87459 | 34005 ft | 418 kts | 250° |
| 2026-05-04 08:24 | 35.99798 | -88.93948 | 34006 ft | 418 kts | 250° |
| 2026-05-04 08:25 | 35.97296 | -89.00429 | 34009 ft | 418 kts | 249° |
| 2026-05-04 08:25 | 35.94764 | -89.06909 | 34009 ft | 418 kts | 250° |
| 2026-05-04 08:27 | 35.84633 | -89.32743 | 33999 ft | 418 kts | 249° |
| 2026-05-04 08:28 | 35.82099 | -89.39179 | 33998 ft | 416 kts | 249° |
| 2026-05-04 08:28 | 35.79574 | -89.45600 | 33999 ft | 416 kts | 249° |
| 2026-05-04 08:29 | 35.77060 | -89.52006 | 34000 ft | 415 kts | 249° |
| 2026-05-04 08:31 | 35.66974 | -89.77536 | 33994 ft | 414 kts | 249° |
| 2026-05-04 08:33 | 35.56762 | -90.02979 | 33998 ft | 416 kts | 249° |
| 2026-05-04 08:35 | 35.46543 | -90.28470 | 34008 ft | 416 kts | 249° |
| 2026-05-04 08:35 | 35.44424 | -90.33765 | 34008 ft | 416 kts | 249° |
| 2026-05-04 08:37 | 35.35356 | -90.56020 | 34001 ft | 417 kts | 249° |
| 2026-05-04 08:38 | 35.32770 | -90.62334 | 34005 ft | 417 kts | 249° |
| 2026-05-04 08:38 | 35.30167 | -90.68681 | 34013 ft | 417 kts | 249° |
| 2026-05-04 08:40 | 35.19730 | -90.94046 | 34014 ft | 416 kts | 249° |
| 2026-05-04 08:41 | 35.17142 | -91.00315 | 34012 ft | 415 kts | 249° |
| 2026-05-04 08:41 | 35.14528 | -91.06652 | 34016 ft | 415 kts | 249° |
| 2026-05-04 08:42 | 35.11934 | -91.12945 | 34021 ft | 415 kts | 249° |
| 2026-05-04 08:42 | 35.09359 | -91.19202 | 34020 ft | 415 kts | 249° |
| 2026-05-04 08:43 | 35.06759 | -91.25492 | 34018 ft | 415 kts | 248° |
| 2026-05-04 08:43 | 35.04122 | -91.31773 | 34018 ft | 415 kts | 248° |
| 2026-05-04 08:44 | 35.01515 | -91.37977 | 34018 ft | 414 kts | 248° |
| 2026-05-04 08:46 | 34.91035 | -91.62918 | 34018 ft | 413 kts | 248° |
| 2026-05-04 08:46 | 34.88412 | -91.69155 | 34015 ft | 413 kts | 248° |
| 2026-05-04 08:47 | 34.85795 | -91.75388 | 34012 ft | 413 kts | 248° |
| 2026-05-04 08:47 | 34.83175 | -91.81620 | 34012 ft | 413 kts | 249° |
| 2026-05-04 08:48 | 34.80546 | -91.87824 | 34011 ft | 413 kts | 248° |
| 2026-05-04 08:48 | 34.77908 | -91.94033 | 34011 ft | 413 kts | 248° |
| 2026-05-04 08:49 | 34.75297 | -92.00196 | 34012 ft | 413 kts | 248° |
| 2026-05-04 08:50 | 34.66482 | -92.21983 | 34027 ft | 405 kts | 255° |
| 2026-05-04 08:51 | 34.64706 | -92.28460 | 34025 ft | 403 kts | 258° |
| 2026-05-04 08:51 | 34.63054 | -92.34917 | 34019 ft | 402 kts | 258° |
| 2026-05-04 08:52 | 34.61333 | -92.41383 | 34016 ft | 402 kts | 257° |
| 2026-05-04 08:52 | 34.59571 | -92.47833 | 34018 ft | 402 kts | 257° |
| 2026-05-04 08:54 | 34.52476 | -92.73517 | 34023 ft | 401 kts | 258° |
| 2026-05-04 08:55 | 34.50709 | -92.79920 | 34022 ft | 400 kts | 257° |
| 2026-05-04 08:55 | 34.48913 | -92.86317 | 34022 ft | 400 kts | 256° |
| 2026-05-04 09:01 | 34.30162 | -93.52941 | 34022 ft | 397 kts | 256° |
| 2026-05-04 09:01 | 34.28354 | -93.59256 | 34022 ft | 397 kts | 256° |
| 2026-05-04 09:02 | 34.26557 | -93.65519 | 34022 ft | 397 kts | 256° |
| 2026-05-04 09:02 | 34.24745 | -93.71818 | 34022 ft | 397 kts | 256° |
| 2026-05-04 09:03 | 34.22951 | -93.78129 | 34022 ft | 398 kts | 257° |
| 2026-05-04 09:03 | 34.21147 | -93.84467 | 34023 ft | 399 kts | 256° |
| 2026-05-04 09:04 | 34.19280 | -93.90796 | 34022 ft | 400 kts | 256° |
| 2026-05-04 09:04 | 34.17380 | -93.97113 | 34022 ft | 400 kts | 256° |
| 2026-05-04 09:05 | 34.15436 | -94.03425 | 34022 ft | 401 kts | 256° |
| 2026-05-04 09:05 | 34.13505 | -94.09703 | 34022 ft | 401 kts | 256° |
| 2026-05-04 09:06 | 34.11560 | -94.16011 | 34022 ft | 401 kts | 256° |
| 2026-05-04 09:08 | 34.03740 | -94.41244 | 34022 ft | 401 kts | 255° |
| 2026-05-04 09:08 | 34.01789 | -94.47502 | 34022 ft | 401 kts | 255° |
| 2026-05-04 09:09 | 33.99826 | -94.53799 | 34021 ft | 401 kts | 255° |
| 2026-05-04 09:09 | 33.97854 | -94.60090 | 34021 ft | 401 kts | 255° |
| 2026-05-04 09:10 | 33.95888 | -94.66379 | 34021 ft | 401 kts | 255° |
| 2026-05-04 09:10 | 33.93924 | -94.72670 | 34018 ft | 401 kts | 255° |
| 2026-05-04 09:11 | 33.91976 | -94.78921 | 34018 ft | 401 kts | 256° |
| 2026-05-04 09:11 | 33.90006 | -94.85200 | 34021 ft | 401 kts | 256° |
| 2026-05-04 09:12 | 33.88031 | -94.91476 | 34021 ft | 400 kts | 256° |
| 2026-05-04 09:14 | 33.80108 | -95.16542 | 34008 ft | 401 kts | 255° |
| 2026-05-04 09:14 | 33.78106 | -95.22798 | 34000 ft | 401 kts | 255° |
| 2026-05-04 09:15 | 33.76104 | -95.29056 | 34002 ft | 401 kts | 255° |
| 2026-05-04 09:15 | 33.74087 | -95.35314 | 34015 ft | 402 kts | 255° |
| 2026-05-04 09:17 | 33.64926 | -95.63548 | 34023 ft | 405 kts | 255° |
| 2026-05-04 09:18 | 33.62869 | -95.69849 | 34017 ft | 405 kts | 255° |
| 2026-05-04 09:18 | 33.60814 | -95.76152 | 34019 ft | 405 kts | 255° |
| 2026-05-04 09:19 | 33.58758 | -95.82455 | 34022 ft | 405 kts | 255° |
| 2026-05-04 09:19 | 33.56715 | -95.88698 | 34019 ft | 404 kts | 255° |
| 2026-05-04 09:20 | 33.54662 | -95.94972 | 34023 ft | 404 kts | 255° |
| 2026-05-04 09:20 | 33.52617 | -96.01232 | 34029 ft | 404 kts | 255° |
| 2026-05-04 09:21 | 33.50917 | -96.06448 | 34032 ft | 404 kts | 255° |
| 2026-05-04 09:21 | 33.48870 | -96.12714 | 34023 ft | 404 kts | 255° |
| 2026-05-04 09:22 | 33.46783 | -96.18984 | 34011 ft | 404 kts | 255° |
| 2026-05-04 09:22 | 33.44523 | -96.25183 | 34013 ft | 410 kts | 249° |
| 2026-05-04 09:23 | 33.41292 | -96.30876 | 34016 ft | 422 kts | 239° |
| 2026-05-04 09:23 | 33.37338 | -96.36128 | 34017 ft | 425 kts | 235° |
| 2026-05-04 09:25 | 33.28521 | -96.56911 | 34019 ft | 394 kts | 267° |
| 2026-05-04 09:25 | 33.28226 | -96.60111 | 34020 ft | 392 kts | 270° |
| 2026-05-04 09:26 | 33.27990 | -96.66679 | 33119 ft | 402 kts | 272° |
| 2026-05-04 09:26 | 33.27919 | -96.69988 | 31887 ft | 395 kts | 272° |
| 2026-05-04 09:26 | 33.27831 | -96.73250 | 30640 ft | 391 kts | 271° |
| 2026-05-04 09:27 | 33.27734 | -96.76467 | 29389 ft | 382 kts | 272° |
| 2026-05-04 09:27 | 33.28156 | -96.79520 | 28130 ft | 366 kts | 289° |
| 2026-05-04 09:27 | 33.29401 | -96.82125 | 26882 ft | 360 kts | 306° |
| 2026-05-04 09:27 | 33.31159 | -96.84196 | 25657 ft | 358 kts | 315° |
| 2026-05-04 09:28 | 33.33134 | -96.85991 | 24416 ft | 355 kts | 320° |
| 2026-05-04 09:28 | 33.35176 | -96.87643 | 23172 ft | 353 kts | 322° |
| 2026-05-04 09:28 | 33.37202 | -96.89284 | 21920 ft | 348 kts | 317° |
| 2026-05-04 09:28 | 33.38729 | -96.91452 | 20668 ft | 337 kts | 296° |
| 2026-05-04 09:29 | 33.39440 | -96.94076 | 19423 ft | 330 kts | 275° |
| 2026-05-04 09:29 | 33.39257 | -96.96767 | 18180 ft | 325 kts | 254° |
| 2026-05-04 09:29 | 33.38218 | -96.99146 | 16933 ft | 324 kts | 232° |
| 2026-05-04 09:29 | 33.36638 | -97.01071 | 15700 ft | 323 kts | 227° |
| 2026-05-04 09:30 | 33.35451 | -97.03285 | 14469 ft | 320 kts | 247° |
| 2026-05-04 09:30 | 33.34445 | -97.05637 | 12907 ft | 324 kts | 232° |
| 2026-05-04 09:30 | 33.32664 | -97.07350 | 11220 ft | 334 kts | 210° |
| 2026-05-04 09:30 | 33.30450 | -97.08097 | 9913 ft | 333 kts | 186° |
| 2026-05-04 09:31 | 33.28221 | -97.07756 | 9107 ft | 319 kts | 169° |
| 2026-05-04 09:31 | 33.26142 | -97.06801 | 7860 ft | 321 kts | 158° |
| 2026-05-04 09:31 | 33.24217 | -97.05527 | 6633 ft | 320 kts | 154° |
| 2026-05-04 09:31 | 33.22323 | -97.04126 | 5378 ft | 318 kts | 151° |
| 2026-05-04 09:32 | 33.20465 | -97.02730 | 4127 ft | 313 kts | 154° |
| 2026-05-04 09:32 | 33.18509 | -97.01984 | 3814 ft | 273 kts | 175° |
| 2026-05-04 09:34 | 33.08634 | -97.02417 | 3953 ft | 155 kts | 185° |
| 2026-05-04 09:34 | 33.07573 | -97.02430 | 3664 ft | 149 kts | 186° |
| 2026-05-04 09:34 | 33.06561 | -97.02447 | 3472 ft | 141 kts | 186° |
| 2026-05-04 09:34 | 33.05609 | -97.02462 | 3387 ft | 134 kts | 187° |
| 2026-05-04 09:35 | 33.04673 | -97.02466 | 3285 ft | 137 kts | 186° |
| 2026-05-04 09:35 | 33.03705 | -97.02478 | 3122 ft | 141 kts | 187° |
| 2026-05-04 09:35 | 33.02714 | -97.02488 | 2941 ft | 144 kts | 187° |
| 2026-05-04 09:35 | 33.01720 | -97.02500 | 2765 ft | 142 kts | 187° |
| 2026-05-04 09:37 | 32.95139 | -97.02603 | 1464 ft | 127 kts | 183° |
| 2026-05-04 09:37 | 32.94264 | -97.02597 | 1292 ft | 124 kts | 181° |
| 2026-05-04 09:38 | 32.93403 | -97.02601 | 1116 ft | 123 kts | 181° |
| 2026-05-04 09:38 | 32.92553 | -97.02609 | 955 ft | 122 kts | 181° |
| 2026-05-04 09:38 | 32.91709 | -97.02611 | 782 ft | 119 kts | 179° |
| 2026-05-04 09:38 | 32.90890 | -97.02599 | 633 ft | 118 kts | 180° |
| 2026-05-04 09:39 | 32.90147 | -97.02606 | 617 ft | 86 kts | 180° |
| 2026-05-04 09:39 | 32.89778 | -97.02610 | 617 ft | 25 kts | 180° |
| 2026-05-04 09:39 | 32.89661 | -97.02627 | 617 ft | 15 kts | 198° |
| 2026-05-04 09:39 | 32.89566 | -97.02685 | 617 ft | 17 kts | 207° |
| 2026-05-04 09:40 | 32.89456 | -97.02755 | 617 ft | 19 kts | 211° |
| 2026-05-04 09:40 | 32.89391 | -97.02850 | 617 ft | 15 kts | 264° |
| 2026-05-04 09:40 | 32.89390 | -97.02978 | 617 ft | 16 kts | 270° |
| 2026-05-04 09:40 | 32.89390 | -97.03118 | 617 ft | 18 kts | 270° |
| 2026-05-04 09:41 | 32.89391 | -97.03275 | 617 ft | 20 kts | 270° |